sensor_id;sensor_type;location;lat;lon;timestamp;P1;durP1;ratioP1;P2;durP2;ratioP2
25073;SDS011;13066;52.042;5.648;2022-12-29T00:01:07;2.97;;;2.45;;
25073;SDS011;13066;52.042;5.648;2022-12-29T00:03:35;3.13;;;2.67;;
25073;SDS011;13066;52.042;5.648;2022-12-29T00:06:03;4.70;;;2.83;;
25073;SDS011;13066;52.042;5.648;2022-12-29T00:08:32;4.60;;;2.67;;
25073;SDS011;13066;52.042;5.648;2022-12-29T00:11:07;4.10;;;2.63;;
25073;SDS011;13066;52.042;5.648;2022-12-29T00:13:35;4.47;;;2.92;;
25073;SDS011;13066;52.042;5.648;2022-12-29T00:16:17;3.22;;;2.58;;
25073;SDS011;13066;52.042;5.648;2022-12-29T00:18:45;5.03;;;2.72;;
25073;SDS011;13066;52.042;5.648;2022-12-29T00:21:13;4.43;;;2.75;;
25073;SDS011;13066;52.042;5.648;2022-12-29T00:24:00;2.88;;;2.42;;
25073;SDS011;13066;52.042;5.648;2022-12-29T00:26:48;5.55;;;2.55;;
25073;SDS011;13066;52.042;5.648;2022-12-29T00:29:37;4.80;;;2.42;;
25073;SDS011;13066;52.042;5.648;2022-12-29T00:32:23;3.55;;;2.63;;
25073;SDS011;13066;52.042;5.648;2022-12-29T00:35:09;5.60;;;2.60;;
25073;SDS011;13066;52.042;5.648;2022-12-29T00:37:40;5.05;;;2.58;;
25073;SDS011;13066;52.042;5.648;2022-12-29T00:40:35;5.90;;;2.92;;
25073;SDS011;13066;52.042;5.648;2022-12-29T00:43:20;3.55;;;2.78;;
25073;SDS011;13066;52.042;5.648;2022-12-29T00:46:06;4.85;;;2.58;;
25073;SDS011;13066;52.042;5.648;2022-12-29T00:48:41;4.78;;;2.20;;
25073;SDS011;13066;52.042;5.648;2022-12-29T00:51:26;4.50;;;2.50;;
25073;SDS011;13066;52.042;5.648;2022-12-29T00:53:54;4.95;;;2.30;;
25073;SDS011;13066;52.042;5.648;2022-12-29T00:56:23;2.80;;;2.03;;
25073;SDS011;13066;52.042;5.648;2022-12-29T00:58:51;2.95;;;2.10;;
25073;SDS011;13066;52.042;5.648;2022-12-29T01:01:19;4.97;;;2.15;;
25073;SDS011;13066;52.042;5.648;2022-12-29T01:03:47;5.30;;;2.15;;
25073;SDS011;13066;52.042;5.648;2022-12-29T01:06:15;2.72;;;1.65;;
25073;SDS011;13066;52.042;5.648;2022-12-29T01:08:43;5.07;;;1.73;;
25073;SDS011;13066;52.042;5.648;2022-12-29T01:11:12;2.42;;;1.63;;
25073;SDS011;13066;52.042;5.648;2022-12-29T01:13:40;2.80;;;1.75;;
25073;SDS011;13066;52.042;5.648;2022-12-29T01:16:09;5.47;;;1.90;;
25073;SDS011;13066;52.042;5.648;2022-12-29T01:18:38;4.25;;;1.88;;
25073;SDS011;13066;52.042;5.648;2022-12-29T01:21:06;2.63;;;1.40;;
25073;SDS011;13066;52.042;5.648;2022-12-29T01:23:34;5.78;;;1.92;;
25073;SDS011;13066;52.042;5.648;2022-12-29T01:26:07;3.33;;;1.40;;
25073;SDS011;13066;52.042;5.648;2022-12-29T01:28:36;1.45;;;1.08;;
25073;SDS011;13066;52.042;5.648;2022-12-29T01:31:06;2.20;;;1.35;;
25073;SDS011;13066;52.042;5.648;2022-12-29T01:33:35;2.42;;;1.42;;
25073;SDS011;13066;52.042;5.648;2022-12-29T01:36:03;1.83;;;1.27;;
25073;SDS011;13066;52.042;5.648;2022-12-29T01:38:34;1.30;;;1.20;;
25073;SDS011;13066;52.042;5.648;2022-12-29T01:41:03;1.70;;;1.30;;
25073;SDS011;13066;52.042;5.648;2022-12-29T01:43:38;1.83;;;1.20;;
25073;SDS011;13066;52.042;5.648;2022-12-29T01:46:11;3.78;;;1.45;;
25073;SDS011;13066;52.042;5.648;2022-12-29T01:48:46;3.17;;;1.17;;
25073;SDS011;13066;52.042;5.648;2022-12-29T01:51:16;2.70;;;1.52;;
25073;SDS011;13066;52.042;5.648;2022-12-29T01:53:44;1.20;;;1.02;;
25073;SDS011;13066;52.042;5.648;2022-12-29T01:56:13;1.35;;;1.25;;
25073;SDS011;13066;52.042;5.648;2022-12-29T01:58:44;2.22;;;1.73;;
25073;SDS011;13066;52.042;5.648;2022-12-29T02:01:16;2.65;;;1.27;;
25073;SDS011;13066;52.042;5.648;2022-12-29T02:03:47;1.40;;;1.30;;
25073;SDS011;13066;52.042;5.648;2022-12-29T02:06:17;3.40;;;1.58;;
25073;SDS011;13066;52.042;5.648;2022-12-29T02:08:49;4.43;;;1.45;;
25073;SDS011;13066;52.042;5.648;2022-12-29T02:11:19;2.60;;;1.48;;
25073;SDS011;13066;52.042;5.648;2022-12-29T02:13:48;2.65;;;1.50;;
25073;SDS011;13066;52.042;5.648;2022-12-29T02:16:21;2.83;;;1.65;;
25073;SDS011;13066;52.042;5.648;2022-12-29T02:19:06;2.88;;;1.75;;
25073;SDS011;13066;52.042;5.648;2022-12-29T02:22:00;3.67;;;1.52;;
25073;SDS011;13066;52.042;5.648;2022-12-29T02:24:52;1.75;;;1.27;;
25073;SDS011;13066;52.042;5.648;2022-12-29T02:27:48;4.85;;;1.65;;
25073;SDS011;13066;52.042;5.648;2022-12-29T02:33:09;1.73;;;1.10;;
25073;SDS011;13066;52.042;5.648;2022-12-29T02:35:51;2.95;;;1.17;;
25073;SDS011;13066;52.042;5.648;2022-12-29T02:38:27;1.10;;;0.80;;
25073;SDS011;13066;52.042;5.648;2022-12-29T02:41:06;4.60;;;0.93;;
25073;SDS011;13066;52.042;5.648;2022-12-29T02:43:44;3.10;;;0.95;;
25073;SDS011;13066;52.042;5.648;2022-12-29T02:46:19;2.22;;;0.85;;
25073;SDS011;13066;52.042;5.648;2022-12-29T02:48:56;3.05;;;0.80;;
25073;SDS011;13066;52.042;5.648;2022-12-29T02:51:34;3.83;;;1.27;;
25073;SDS011;13066;52.042;5.648;2022-12-29T02:54:07;3.40;;;0.90;;
25073;SDS011;13066;52.042;5.648;2022-12-29T02:56:52;1.77;;;1.00;;
25073;SDS011;13066;52.042;5.648;2022-12-29T02:59:20;3.72;;;1.00;;
25073;SDS011;13066;52.042;5.648;2022-12-29T03:04:47;1.90;;;0.98;;
25073;SDS011;13066;52.042;5.648;2022-12-29T03:07:36;6.15;;;1.05;;
25073;SDS011;13066;52.042;5.648;2022-12-29T03:10:14;5.90;;;1.60;;
25073;SDS011;13066;52.042;5.648;2022-12-29T03:12:54;1.70;;;1.05;;
25073;SDS011;13066;52.042;5.648;2022-12-29T03:15:50;4.43;;;1.60;;
25073;SDS011;13066;52.042;5.648;2022-12-29T03:18:37;1.80;;;1.00;;
25073;SDS011;13066;52.042;5.648;2022-12-29T03:21:12;1.52;;;1.20;;
25073;SDS011;13066;52.042;5.648;2022-12-29T03:23:44;3.25;;;1.02;;
25073;SDS011;13066;52.042;5.648;2022-12-29T03:26:15;5.93;;;1.27;;
25073;SDS011;13066;52.042;5.648;2022-12-29T03:28:46;5.53;;;1.10;;
25073;SDS011;13066;52.042;5.648;2022-12-29T03:31:17;2.35;;;0.68;;
25073;SDS011;13066;52.042;5.648;2022-12-29T03:33:49;1.63;;;0.75;;
25073;SDS011;13066;52.042;5.648;2022-12-29T03:36:20;4.43;;;1.20;;
25073;SDS011;13066;52.042;5.648;2022-12-29T03:38:56;6.70;;;1.27;;
25073;SDS011;13066;52.042;5.648;2022-12-29T03:41:30;3.20;;;0.90;;
25073;SDS011;13066;52.042;5.648;2022-12-29T03:44:00;6.68;;;1.10;;
25073;SDS011;13066;52.042;5.648;2022-12-29T03:46:28;3.42;;;1.00;;
25073;SDS011;13066;52.042;5.648;2022-12-29T03:48:57;4.20;;;1.80;;
25073;SDS011;13066;52.042;5.648;2022-12-29T03:51:25;1.33;;;0.85;;
25073;SDS011;13066;52.042;5.648;2022-12-29T03:53:53;2.38;;;1.23;;
25073;SDS011;13066;52.042;5.648;2022-12-29T03:56:21;4.53;;;1.27;;
25073;SDS011;13066;52.042;5.648;2022-12-29T03:58:49;2.38;;;1.08;;
25073;SDS011;13066;52.042;5.648;2022-12-29T04:01:17;1.30;;;1.05;;
25073;SDS011;13066;52.042;5.648;2022-12-29T04:03:45;5.13;;;1.40;;
25073;SDS011;13066;52.042;5.648;2022-12-29T04:06:15;4.18;;;1.30;;
25073;SDS011;13066;52.042;5.648;2022-12-29T04:08:42;5.25;;;1.30;;
25073;SDS011;13066;52.042;5.648;2022-12-29T04:11:10;5.18;;;1.30;;
25073;SDS011;13066;52.042;5.648;2022-12-29T04:13:39;9.20;;;1.50;;
25073;SDS011;13066;52.042;5.648;2022-12-29T04:16:07;5.78;;;1.30;;
25073;SDS011;13066;52.042;5.648;2022-12-29T04:18:35;4.65;;;1.40;;
25073;SDS011;13066;52.042;5.648;2022-12-29T04:21:03;5.90;;;1.30;;
25073;SDS011;13066;52.042;5.648;2022-12-29T04:23:35;3.63;;;1.13;;
25073;SDS011;13066;52.042;5.648;2022-12-29T04:26:04;3.85;;;1.42;;
25073;SDS011;13066;52.042;5.648;2022-12-29T04:28:33;2.38;;;1.23;;
25073;SDS011;13066;52.042;5.648;2022-12-29T04:31:02;4.85;;;1.10;;
25073;SDS011;13066;52.042;5.648;2022-12-29T04:33:30;3.42;;;1.30;;
25073;SDS011;13066;52.042;5.648;2022-12-29T04:35:58;3.95;;;1.27;;
25073;SDS011;13066;52.042;5.648;2022-12-29T04:38:26;4.63;;;1.38;;
25073;SDS011;13066;52.042;5.648;2022-12-29T04:40:58;6.43;;;1.38;;
25073;SDS011;13066;52.042;5.648;2022-12-29T04:43:27;7.80;;;1.23;;
25073;SDS011;13066;52.042;5.648;2022-12-29T04:45:55;7.32;;;0.90;;
25073;SDS011;13066;52.042;5.648;2022-12-29T04:48:24;13.07;;;1.65;;
25073;SDS011;13066;52.042;5.648;2022-12-29T04:50:51;4.05;;;1.08;;
25073;SDS011;13066;52.042;5.648;2022-12-29T04:53:19;6.50;;;1.25;;
25073;SDS011;13066;52.042;5.648;2022-12-29T04:55:48;8.75;;;1.38;;
25073;SDS011;13066;52.042;5.648;2022-12-29T04:58:18;6.50;;;1.13;;
25073;SDS011;13066;52.042;5.648;2022-12-29T05:00:48;4.65;;;1.52;;
25073;SDS011;13066;52.042;5.648;2022-12-29T05:03:17;5.88;;;1.85;;
25073;SDS011;13066;52.042;5.648;2022-12-29T05:05:45;6.10;;;1.25;;
25073;SDS011;13066;52.042;5.648;2022-12-29T05:08:13;8.88;;;1.27;;
25073;SDS011;13066;52.042;5.648;2022-12-29T05:10:43;13.35;;;1.58;;
25073;SDS011;13066;52.042;5.648;2022-12-29T05:13:12;5.28;;;1.60;;
25073;SDS011;13066;52.042;5.648;2022-12-29T05:15:45;11.82;;;1.42;;
25073;SDS011;13066;52.042;5.648;2022-12-29T05:18:15;9.07;;;1.40;;
25073;SDS011;13066;52.042;5.648;2022-12-29T05:20:43;7.90;;;1.20;;
25073;SDS011;13066;52.042;5.648;2022-12-29T05:23:11;6.00;;;1.42;;
25073;SDS011;13066;52.042;5.648;2022-12-29T05:25:40;4.43;;;1.00;;
25073;SDS011;13066;52.042;5.648;2022-12-29T05:28:08;5.95;;;1.10;;
25073;SDS011;13066;52.042;5.648;2022-12-29T05:30:35;6.20;;;1.10;;
25073;SDS011;13066;52.042;5.648;2022-12-29T05:33:05;11.13;;;1.80;;
25073;SDS011;13066;52.042;5.648;2022-12-29T05:35:33;12.80;;;1.65;;
25073;SDS011;13066;52.042;5.648;2022-12-29T05:38:01;7.28;;;1.17;;
25073;SDS011;13066;52.042;5.648;2022-12-29T05:40:29;4.75;;;1.52;;
25073;SDS011;13066;52.042;5.648;2022-12-29T05:42:58;5.38;;;1.10;;
25073;SDS011;13066;52.042;5.648;2022-12-29T05:45:25;4.80;;;1.17;;
25073;SDS011;13066;52.042;5.648;2022-12-29T05:47:53;5.78;;;1.75;;
25073;SDS011;13066;52.042;5.648;2022-12-29T05:50:23;10.07;;;1.50;;
25073;SDS011;13066;52.042;5.648;2022-12-29T05:52:51;7.80;;;1.15;;
25073;SDS011;13066;52.042;5.648;2022-12-29T05:55:19;9.07;;;1.70;;
25073;SDS011;13066;52.042;5.648;2022-12-29T05:57:47;8.48;;;1.70;;
25073;SDS011;13066;52.042;5.648;2022-12-29T06:00:15;8.38;;;1.17;;
25073;SDS011;13066;52.042;5.648;2022-12-29T06:02:43;10.02;;;1.50;;
25073;SDS011;13066;52.042;5.648;2022-12-29T06:05:12;4.68;;;1.00;;
25073;SDS011;13066;52.042;5.648;2022-12-29T06:07:41;14.38;;;1.65;;
25073;SDS011;13066;52.042;5.648;2022-12-29T06:10:11;4.43;;;1.40;;
25073;SDS011;13066;52.042;5.648;2022-12-29T06:12:39;11.63;;;1.85;;
25073;SDS011;13066;52.042;5.648;2022-12-29T06:15:07;5.40;;;1.58;;
25073;SDS011;13066;52.042;5.648;2022-12-29T06:17:35;7.07;;;1.67;;
25073;SDS011;13066;52.042;5.648;2022-12-29T06:20:03;8.18;;;1.60;;
25073;SDS011;13066;52.042;5.648;2022-12-29T06:22:32;7.35;;;1.55;;
25073;SDS011;13066;52.042;5.648;2022-12-29T06:25:02;2.90;;;1.42;;
25073;SDS011;13066;52.042;5.648;2022-12-29T06:27:31;9.88;;;1.75;;
25073;SDS011;13066;52.042;5.648;2022-12-29T06:29:59;7.70;;;1.85;;
25073;SDS011;13066;52.042;5.648;2022-12-29T06:32:27;10.57;;;1.65;;
25073;SDS011;13066;52.042;5.648;2022-12-29T06:34:55;9.27;;;1.52;;
25073;SDS011;13066;52.042;5.648;2022-12-29T06:37:23;7.53;;;1.75;;
25073;SDS011;13066;52.042;5.648;2022-12-29T06:39:51;4.47;;;1.20;;
25073;SDS011;13066;52.042;5.648;2022-12-29T06:42:20;10.32;;;1.42;;
25073;SDS011;13066;52.042;5.648;2022-12-29T06:44:48;6.85;;;2.00;;
25073;SDS011;13066;52.042;5.648;2022-12-29T06:47:16;8.77;;;1.60;;
25073;SDS011;13066;52.042;5.648;2022-12-29T06:49:44;10.88;;;1.80;;
25073;SDS011;13066;52.042;5.648;2022-12-29T06:52:12;11.88;;;1.83;;
25073;SDS011;13066;52.042;5.648;2022-12-29T06:54:40;5.13;;;1.70;;
25073;SDS011;13066;52.042;5.648;2022-12-29T06:57:08;9.52;;;1.55;;
25073;SDS011;13066;52.042;5.648;2022-12-29T06:59:37;10.13;;;2.08;;
25073;SDS011;13066;52.042;5.648;2022-12-29T07:02:05;12.23;;;1.95;;
25073;SDS011;13066;52.042;5.648;2022-12-29T07:04:34;6.93;;;1.60;;
25073;SDS011;13066;52.042;5.648;2022-12-29T07:07:02;10.77;;;1.92;;
25073;SDS011;13066;52.042;5.648;2022-12-29T07:09:30;9.77;;;1.50;;
25073;SDS011;13066;52.042;5.648;2022-12-29T07:11:58;9.02;;;1.50;;
25073;SDS011;13066;52.042;5.648;2022-12-29T07:14:26;3.88;;;1.20;;
25073;SDS011;13066;52.042;5.648;2022-12-29T07:16:56;10.57;;;1.95;;
25073;SDS011;13066;52.042;5.648;2022-12-29T07:19:24;6.43;;;1.30;;
25073;SDS011;13066;52.042;5.648;2022-12-29T07:21:53;7.95;;;1.23;;
25073;SDS011;13066;52.042;5.648;2022-12-29T07:24:21;8.38;;;1.67;;
25073;SDS011;13066;52.042;5.648;2022-12-29T07:26:51;7.47;;;1.95;;
25073;SDS011;13066;52.042;5.648;2022-12-29T07:29:19;9.02;;;1.70;;
25073;SDS011;13066;52.042;5.648;2022-12-29T07:31:47;4.25;;;1.35;;
25073;SDS011;13066;52.042;5.648;2022-12-29T07:34:17;14.45;;;1.90;;
25073;SDS011;13066;52.042;5.648;2022-12-29T07:36:45;13.23;;;2.20;;
25073;SDS011;13066;52.042;5.648;2022-12-29T07:39:13;10.27;;;1.63;;
25073;SDS011;13066;52.042;5.648;2022-12-29T07:41:41;13.80;;;2.35;;
25073;SDS011;13066;52.042;5.648;2022-12-29T07:44:09;9.90;;;1.73;;
25073;SDS011;13066;52.042;5.648;2022-12-29T07:46:37;10.85;;;2.55;;
25073;SDS011;13066;52.042;5.648;2022-12-29T07:49:23;9.25;;;1.88;;
25073;SDS011;13066;52.042;5.648;2022-12-29T07:51:51;7.75;;;1.90;;
25073;SDS011;13066;52.042;5.648;2022-12-29T07:54:19;7.05;;;1.88;;
25073;SDS011;13066;52.042;5.648;2022-12-29T07:56:49;9.93;;;2.03;;
25073;SDS011;13066;52.042;5.648;2022-12-29T07:59:17;10.05;;;2.00;;
25073;SDS011;13066;52.042;5.648;2022-12-29T08:01:45;12.75;;;3.30;;
25073;SDS011;13066;52.042;5.648;2022-12-29T08:04:14;10.63;;;2.72;;
25073;SDS011;13066;52.042;5.648;2022-12-29T08:06:43;12.63;;;3.10;;
25073;SDS011;13066;52.042;5.648;2022-12-29T08:09:12;9.90;;;1.75;;
25073;SDS011;13066;52.042;5.648;2022-12-29T08:11:47;12.43;;;2.08;;
25073;SDS011;13066;52.042;5.648;2022-12-29T08:14:16;12.40;;;2.00;;
25073;SDS011;13066;52.042;5.648;2022-12-29T08:16:44;14.25;;;2.63;;
25073;SDS011;13066;52.042;5.648;2022-12-29T08:19:12;13.82;;;3.13;;
25073;SDS011;13066;52.042;5.648;2022-12-29T08:21:40;21.42;;;2.80;;
25073;SDS011;13066;52.042;5.648;2022-12-29T08:24:10;19.17;;;2.28;;
25073;SDS011;13066;52.042;5.648;2022-12-29T08:26:38;9.90;;;1.90;;
25073;SDS011;13066;52.042;5.648;2022-12-29T08:29:06;15.00;;;2.42;;
25073;SDS011;13066;52.042;5.648;2022-12-29T08:31:34;10.38;;;1.85;;
25073;SDS011;13066;52.042;5.648;2022-12-29T08:34:02;11.48;;;1.73;;
25073;SDS011;13066;52.042;5.648;2022-12-29T08:36:30;14.68;;;2.22;;
25073;SDS011;13066;52.042;5.648;2022-12-29T08:38:58;12.13;;;2.00;;
25073;SDS011;13066;52.042;5.648;2022-12-29T08:41:28;10.40;;;2.10;;
25073;SDS011;13066;52.042;5.648;2022-12-29T08:43:55;12.40;;;1.75;;
25073;SDS011;13066;52.042;5.648;2022-12-29T08:46:23;12.48;;;1.98;;
25073;SDS011;13066;52.042;5.648;2022-12-29T08:48:52;8.00;;;1.70;;
25073;SDS011;13066;52.042;5.648;2022-12-29T08:51:20;8.52;;;2.03;;
25073;SDS011;13066;52.042;5.648;2022-12-29T08:53:50;8.40;;;1.90;;
25073;SDS011;13066;52.042;5.648;2022-12-29T08:56:18;11.65;;;1.75;;
25073;SDS011;13066;52.042;5.648;2022-12-29T08:58:48;8.93;;;1.35;;
25073;SDS011;13066;52.042;5.648;2022-12-29T09:01:16;14.35;;;1.70;;
25073;SDS011;13066;52.042;5.648;2022-12-29T09:03:44;13.85;;;1.83;;
25073;SDS011;13066;52.042;5.648;2022-12-29T09:06:32;11.65;;;2.05;;
25073;SDS011;13066;52.042;5.648;2022-12-29T09:09:06;11.15;;;1.92;;
25073;SDS011;13066;52.042;5.648;2022-12-29T09:11:34;9.25;;;1.85;;
25073;SDS011;13066;52.042;5.648;2022-12-29T09:14:03;13.50;;;2.22;;
25073;SDS011;13066;52.042;5.648;2022-12-29T09:16:31;13.88;;;2.20;;
25073;SDS011;13066;52.042;5.648;2022-12-29T09:18:59;9.00;;;1.70;;
25073;SDS011;13066;52.042;5.648;2022-12-29T09:21:27;13.55;;;1.80;;
25073;SDS011;13066;52.042;5.648;2022-12-29T09:23:55;8.15;;;1.80;;
25073;SDS011;13066;52.042;5.648;2022-12-29T09:26:23;18.58;;;2.03;;
25073;SDS011;13066;52.042;5.648;2022-12-29T09:28:52;11.93;;;1.75;;
25073;SDS011;13066;52.042;5.648;2022-12-29T09:31:21;11.02;;;1.90;;
25073;SDS011;13066;52.042;5.648;2022-12-29T09:33:49;9.18;;;2.05;;
25073;SDS011;13066;52.042;5.648;2022-12-29T09:36:17;12.23;;;2.25;;
25073;SDS011;13066;52.042;5.648;2022-12-29T09:38:45;16.65;;;2.25;;
25073;SDS011;13066;52.042;5.648;2022-12-29T09:41:16;12.10;;;2.20;;
25073;SDS011;13066;52.042;5.648;2022-12-29T09:44:01;15.48;;;2.35;;
25073;SDS011;13066;52.042;5.648;2022-12-29T09:46:36;13.00;;;2.25;;
25073;SDS011;13066;52.042;5.648;2022-12-29T09:49:08;11.68;;;1.98;;
25073;SDS011;13066;52.042;5.648;2022-12-29T09:51:44;19.90;;;3.42;;
25073;SDS011;13066;52.042;5.648;2022-12-29T09:54:21;10.50;;;1.98;;
25073;SDS011;13066;52.042;5.648;2022-12-29T09:56:55;14.43;;;2.33;;
25073;SDS011;13066;52.042;5.648;2022-12-29T09:59:24;16.58;;;3.10;;
25073;SDS011;13066;52.042;5.648;2022-12-29T10:02:03;12.07;;;2.45;;
25073;SDS011;13066;52.042;5.648;2022-12-29T10:04:40;18.15;;;1.92;;
25073;SDS011;13066;52.042;5.648;2022-12-29T10:07:11;11.00;;;1.85;;
25073;SDS011;13066;52.042;5.648;2022-12-29T10:09:56;13.93;;;1.70;;
25073;SDS011;13066;52.042;5.648;2022-12-29T10:12:41;23.33;;;2.95;;
25073;SDS011;13066;52.042;5.648;2022-12-29T10:15:24;66.63;;;7.85;;
25073;SDS011;13066;52.042;5.648;2022-12-29T10:18:13;17.50;;;3.45;;
25073;SDS011;13066;52.042;5.648;2022-12-29T10:20:48;40.50;;;4.85;;
25073;SDS011;13066;52.042;5.648;2022-12-29T10:23:24;30.20;;;4.17;;
25073;SDS011;13066;52.042;5.648;2022-12-29T10:25:56;8.35;;;2.50;;
25073;SDS011;13066;52.042;5.648;2022-12-29T10:28:30;15.85;;;2.10;;
25073;SDS011;13066;52.042;5.648;2022-12-29T10:31:05;8.07;;;2.00;;
25073;SDS011;13066;52.042;5.648;2022-12-29T10:33:39;8.55;;;1.67;;
25073;SDS011;13066;52.042;5.648;2022-12-29T10:36:12;12.05;;;2.08;;
25073;SDS011;13066;52.042;5.648;2022-12-29T10:38:45;15.18;;;2.35;;
25073;SDS011;13066;52.042;5.648;2022-12-29T10:41:20;8.48;;;1.80;;
25073;SDS011;13066;52.042;5.648;2022-12-29T10:43:51;14.32;;;2.50;;
25073;SDS011;13066;52.042;5.648;2022-12-29T10:46:21;14.25;;;2.55;;
25073;SDS011;13066;52.042;5.648;2022-12-29T10:48:54;10.23;;;2.30;;
25073;SDS011;13066;52.042;5.648;2022-12-29T10:51:22;11.40;;;2.20;;
25073;SDS011;13066;52.042;5.648;2022-12-29T10:53:53;12.30;;;2.72;;
25073;SDS011;13066;52.042;5.648;2022-12-29T10:56:27;8.70;;;2.28;;
25073;SDS011;13066;52.042;5.648;2022-12-29T10:59:01;10.70;;;2.40;;
25073;SDS011;13066;52.042;5.648;2022-12-29T11:01:39;12.25;;;2.10;;
25073;SDS011;13066;52.042;5.648;2022-12-29T11:04:25;9.15;;;2.58;;
25073;SDS011;13066;52.042;5.648;2022-12-29T11:07:05;9.23;;;3.15;;
25073;SDS011;13066;52.042;5.648;2022-12-29T11:09:40;14.15;;;2.53;;
25073;SDS011;13066;52.042;5.648;2022-12-29T11:12:20;17.77;;;3.08;;
25073;SDS011;13066;52.042;5.648;2022-12-29T11:15:00;14.25;;;3.10;;
25073;SDS011;13066;52.042;5.648;2022-12-29T11:17:43;15.88;;;2.40;;
25073;SDS011;13066;52.042;5.648;2022-12-29T11:22:59;18.92;;;3.42;;
25073;SDS011;13066;52.042;5.648;2022-12-29T11:25:27;16.42;;;3.92;;
25073;SDS011;13066;52.042;5.648;2022-12-29T11:27:56;17.73;;;3.25;;
25073;SDS011;13066;52.042;5.648;2022-12-29T11:30:27;21.02;;;3.63;;
25073;SDS011;13066;52.042;5.648;2022-12-29T11:32:57;13.38;;;3.72;;
25073;SDS011;13066;52.042;5.648;2022-12-29T11:35:32;15.95;;;3.08;;
25073;SDS011;13066;52.042;5.648;2022-12-29T11:38:02;18.40;;;4.20;;
25073;SDS011;13066;52.042;5.648;2022-12-29T11:40:31;10.63;;;3.15;;
25073;SDS011;13066;52.042;5.648;2022-12-29T11:43:04;21.23;;;3.88;;
25073;SDS011;13066;52.042;5.648;2022-12-29T11:45:33;12.90;;;4.03;;
25073;SDS011;13066;52.042;5.648;2022-12-29T11:48:06;17.20;;;3.92;;
25073;SDS011;13066;52.042;5.648;2022-12-29T11:50:37;17.92;;;4.47;;
25073;SDS011;13066;52.042;5.648;2022-12-29T11:53:08;14.90;;;3.63;;
25073;SDS011;13066;52.042;5.648;2022-12-29T11:55:50;14.65;;;4.93;;
25073;SDS011;13066;52.042;5.648;2022-12-29T11:58:20;25.73;;;4.90;;
25073;SDS011;13066;52.042;5.648;2022-12-29T12:00:48;15.85;;;3.75;;
25073;SDS011;13066;52.042;5.648;2022-12-29T12:03:18;11.00;;;3.72;;
25073;SDS011;13066;52.042;5.648;2022-12-29T12:05:51;15.30;;;4.15;;
25073;SDS011;13066;52.042;5.648;2022-12-29T12:08:30;12.13;;;2.00;;
25073;SDS011;13066;52.042;5.648;2022-12-29T12:11:04;13.52;;;2.47;;
25073;SDS011;13066;52.042;5.648;2022-12-29T12:13:38;22.27;;;3.08;;
25073;SDS011;13066;52.042;5.648;2022-12-29T12:16:12;15.85;;;3.03;;
25073;SDS011;13066;52.042;5.648;2022-12-29T12:18:44;17.48;;;2.70;;
25073;SDS011;13066;52.042;5.648;2022-12-29T12:21:27;9.18;;;3.00;;
25073;SDS011;13066;52.042;5.648;2022-12-29T12:24:16;38.58;;;5.60;;
25073;SDS011;13066;52.042;5.648;2022-12-29T12:27:01;15.07;;;3.47;;
25073;SDS011;13066;52.042;5.648;2022-12-29T12:29:35;26.25;;;3.78;;
25073;SDS011;13066;52.042;5.648;2022-12-29T12:32:11;20.63;;;3.80;;
25073;SDS011;13066;52.042;5.648;2022-12-29T12:34:43;21.77;;;4.20;;
25073;SDS011;13066;52.042;5.648;2022-12-29T12:37:18;28.58;;;3.90;;
25073;SDS011;13066;52.042;5.648;2022-12-29T12:40:13;27.27;;;3.75;;
25073;SDS011;13066;52.042;5.648;2022-12-29T12:43:09;18.20;;;4.03;;
25073;SDS011;13066;52.042;5.648;2022-12-29T12:45:53;23.58;;;3.60;;
25073;SDS011;13066;52.042;5.648;2022-12-29T12:48:36;22.73;;;3.67;;
25073;SDS011;13066;52.042;5.648;2022-12-29T12:51:23;14.05;;;3.40;;
25073;SDS011;13066;52.042;5.648;2022-12-29T12:54:04;18.63;;;3.28;;
25073;SDS011;13066;52.042;5.648;2022-12-29T12:56:47;13.63;;;4.07;;
25073;SDS011;13066;52.042;5.648;2022-12-29T12:59:29;21.00;;;3.33;;
25073;SDS011;13066;52.042;5.648;2022-12-29T13:02:06;19.70;;;4.20;;
25073;SDS011;13066;52.042;5.648;2022-12-29T13:05:00;21.58;;;3.63;;
25073;SDS011;13066;52.042;5.648;2022-12-29T13:07:54;18.42;;;4.25;;
25073;SDS011;13066;52.042;5.648;2022-12-29T13:10:38;150.90;;;14.98;;
25073;SDS011;13066;52.042;5.648;2022-12-29T13:13:28;19.15;;;5.03;;
25073;SDS011;13066;52.042;5.648;2022-12-29T13:16:21;27.10;;;4.05;;
25073;SDS011;13066;52.042;5.648;2022-12-29T13:18:58;22.63;;;4.40;;
25073;SDS011;13066;52.042;5.648;2022-12-29T13:21:34;17.83;;;3.42;;
25073;SDS011;13066;52.042;5.648;2022-12-29T13:24:24;25.53;;;4.20;;
25073;SDS011;13066;52.042;5.648;2022-12-29T13:27:02;18.73;;;4.00;;
25073;SDS011;13066;52.042;5.648;2022-12-29T13:29:38;18.05;;;3.60;;
25073;SDS011;13066;52.042;5.648;2022-12-29T13:32:18;17.50;;;3.97;;
25073;SDS011;13066;52.042;5.648;2022-12-29T13:34:56;17.58;;;3.50;;
25073;SDS011;13066;52.042;5.648;2022-12-29T13:37:35;15.35;;;3.70;;
25073;SDS011;13066;52.042;5.648;2022-12-29T13:40:15;19.48;;;3.50;;
25073;SDS011;13066;52.042;5.648;2022-12-29T13:42:47;13.95;;;2.63;;
25073;SDS011;13066;52.042;5.648;2022-12-29T13:45:16;18.95;;;3.60;;
25073;SDS011;13066;52.042;5.648;2022-12-29T13:47:47;11.85;;;2.80;;
25073;SDS011;13066;52.042;5.648;2022-12-29T13:50:19;18.40;;;4.15;;
25073;SDS011;13066;52.042;5.648;2022-12-29T13:52:50;12.50;;;3.85;;
25073;SDS011;13066;52.042;5.648;2022-12-29T13:55:26;16.20;;;2.72;;
25073;SDS011;13066;52.042;5.648;2022-12-29T13:58:02;17.77;;;3.42;;
25073;SDS011;13066;52.042;5.648;2022-12-29T14:00:43;13.68;;;2.78;;
25073;SDS011;13066;52.042;5.648;2022-12-29T14:03:28;13.45;;;2.60;;
25073;SDS011;13066;52.042;5.648;2022-12-29T14:06:21;12.15;;;2.92;;
25073;SDS011;13066;52.042;5.648;2022-12-29T14:08:52;14.40;;;2.63;;
25073;SDS011;13066;52.042;5.648;2022-12-29T14:11:22;20.33;;;2.78;;
25073;SDS011;13066;52.042;5.648;2022-12-29T15:18:20;6.70;;;1.75;;
25073;SDS011;13066;52.042;5.648;2022-12-29T15:20:50;6.40;;;1.40;;
25073;SDS011;13066;52.042;5.648;2022-12-29T15:24:49;5.90;;;1.45;;
25073;SDS011;13066;52.042;5.648;2022-12-29T15:27:57;5.85;;;1.63;;
25073;SDS011;13066;52.042;5.648;2022-12-29T15:40:31;9.43;;;2.55;;
25073;SDS011;13066;52.042;5.648;2022-12-29T15:45:50;11.75;;;3.40;;
25073;SDS011;13066;52.042;5.648;2022-12-29T15:48:19;20.52;;;5.55;;
25073;SDS011;13066;52.042;5.648;2022-12-29T15:50:49;19.20;;;3.28;;
25073;SDS011;13066;52.042;5.648;2022-12-29T15:53:18;11.85;;;2.65;;
25073;SDS011;13066;52.042;5.648;2022-12-29T15:55:52;15.30;;;2.88;;
25073;SDS011;13066;52.042;5.648;2022-12-29T15:58:28;11.18;;;2.70;;
25073;SDS011;13066;52.042;5.648;2022-12-29T16:00:57;8.25;;;2.65;;
25073;SDS011;13066;52.042;5.648;2022-12-29T16:03:27;10.35;;;2.72;;
25073;SDS011;13066;52.042;5.648;2022-12-29T16:05:58;12.50;;;2.03;;
25073;SDS011;13066;52.042;5.648;2022-12-29T16:08:35;7.88;;;2.70;;
25073;SDS011;13066;52.042;5.648;2022-12-29T16:11:06;9.45;;;2.92;;
25073;SDS011;13066;52.042;5.648;2022-12-29T16:13:43;12.82;;;3.55;;
25073;SDS011;13066;52.042;5.648;2022-12-29T16:16:12;14.60;;;3.20;;
25073;SDS011;13066;52.042;5.648;2022-12-29T16:18:43;10.95;;;2.42;;
25073;SDS011;13066;52.042;5.648;2022-12-29T16:21:15;11.10;;;2.55;;
25073;SDS011;13066;52.042;5.648;2022-12-29T16:23:46;10.63;;;2.80;;
25073;SDS011;13066;52.042;5.648;2022-12-29T16:26:17;12.90;;;2.88;;
25073;SDS011;13066;52.042;5.648;2022-12-29T16:28:47;15.40;;;3.10;;
25073;SDS011;13066;52.042;5.648;2022-12-29T16:31:17;12.50;;;2.70;;
25073;SDS011;13066;52.042;5.648;2022-12-29T16:33:48;9.73;;;2.33;;
25073;SDS011;13066;52.042;5.648;2022-12-29T16:39:19;6.00;;;1.80;;
25073;SDS011;13066;52.042;5.648;2022-12-29T16:41:50;10.77;;;2.30;;
25073;SDS011;13066;52.042;5.648;2022-12-29T16:44:19;11.38;;;2.28;;